Language: 


Des rapports , des résumés tant et plus, au choix de chacun....


Données statistiques de la station
Quotidien Rapport Février 22, 2017 Unités:  les deux    Anglais   Métrique
« Précédent Jour
Suivant Jour »
Quotidien Hebdomadaire Mensuel Annuel Actuel
  Haut: Bas: Moyen:
Température: TemperatureC °F /  -17.8 °C 9.9 °F /  -12.3 °C 10.6 °F /  -11.9 °C
Pt de rosée: DewpointC °F /  -17.8 °C 9.1 °F /  -12.7 °C 9.7 °F /  -12.4 °C
Humidité: Humidity % 92 % 94 %
Vitesse du vent: WindSpeedKMH mph /  0 km/h - 30.7 mph /  49.4 km/h
Rafales: WindSpeedGustKMH mph /  0 km/h - -
Vent:- - WSW
Pression: PressurehPa in /  0 hPa 1007.0 in /  34097 hPa -
Précipitation: 0.0 in /  0 mm    
Historical Graphs
 
 
Données statistiques pour Février 22, 2017
Heure Température Point de rosée Pression Vent Vitesse du vent Refales Humidité Pluie (taux horaire)
TemperatureC °F /  -17.8 °C DewpointC °F /  -17.8 °C PressurehPa in /  0 hPa Calm     Humidity % HourlyPrecipMM in /  0 mm
00:04 10.2 °F /  -12.1 °C 9.4 °F /  -12.6 °C 1013.1 in /  34303.6 hPa WSW 33.5 mph /  53.9 km/h 43.6 mph /  70.2 km/h 95 % 0.0 in /  0 mm
00:09 10.2 °F /  -12.1 °C 9.4 °F /  -12.6 °C 1013.1 in /  34303.6 hPa WSW 28.0 mph /  45.1 km/h 40.4 mph /  65 km/h 95 % 0.0 in /  0 mm
00:14 10.1 °F /  -12.2 °C 9.3 °F /  -12.6 °C 1013.1 in /  34303.6 hPa WNW 23.8 mph /  38.3 km/h 40.4 mph /  65 km/h 95 % 0.0 in /  0 mm
00:19 10.1 °F /  -12.2 °C 9.3 °F /  -12.6 °C 1013.1 in /  34303.6 hPa WSW 35.6 mph /  57.3 km/h 35.6 mph /  57.3 km/h 95 % 0.0 in /  0 mm
00:24 10.1 °F /  -12.2 °C 9.3 °F /  -12.6 °C 1013.1 in /  34303.6 hPa West 21.6 mph /  34.8 km/h 35.6 mph /  57.3 km/h 95 % 0.0 in /  0 mm
00:29 10.1 °F /  -12.2 °C 9.3 °F /  -12.6 °C 1013.1 in /  34303.6 hPa WSW 32.8 mph /  52.8 km/h 32.8 mph /  52.8 km/h 95 % 0.0 in /  0 mm
00:34 10.1 °F /  -12.2 °C 9.3 °F /  -12.6 °C 1013.1 in /  34303.6 hPa WSW 29.1 mph /  46.8 km/h 33.1 mph /  53.3 km/h 95 % 0.0 in /  0 mm
00:39 10.1 °F /  -12.2 °C 9.3 °F /  -12.6 °C 1013.1 in /  34303.6 hPa West 31.7 mph /  51 km/h 43.6 mph /  70.2 km/h 95 % 0.0 in /  0 mm
00:44 10.0 °F /  -12.2 °C 9.2 °F /  -12.7 °C 1013.1 in /  34303.6 hPa WSW 28.8 mph /  46.3 km/h 43.6 mph /  70.2 km/h 95 % 0.0 in /  0 mm
00:49 10.0 °F /  -12.2 °C 9.2 °F /  -12.7 °C 1013.1 in /  34303.6 hPa WSW 32.0 mph /  51.5 km/h 33.8 mph /  54.4 km/h 95 % 0.0 in /  0 mm
00:54 10.0 °F /  -12.2 °C 9.2 °F /  -12.7 °C 1013.1 in /  34303.6 hPa West 31.7 mph /  51 km/h 36.4 mph /  58.6 km/h 95 % 0.0 in /  0 mm
00:59 10.0 °F /  -12.2 °C 9.2 °F /  -12.7 °C 1013.1 in /  34303.6 hPa WSW 32.3 mph /  52 km/h 37.8 mph /  60.8 km/h 95 % 0.0 in /  0 mm
01:04 10.0 °F /  -12.2 °C 9.2 °F /  -12.7 °C 1013.1 in /  34303.6 hPa WSW 28.8 mph /  46.3 km/h 37.8 mph /  60.8 km/h 95 % 0.0 in /  0 mm
01:09 10.0 °F /  -12.2 °C 9.2 °F /  -12.7 °C 1013.1 in /  34303.6 hPa WSW 24.5 mph /  39.4 km/h 34.3 mph /  55.2 km/h 95 % 0.0 in /  0 mm
01:14 9.9 °F /  -12.3 °C 9.1 °F /  -12.7 °C 1013.1 in /  34303.6 hPa WSW 32.0 mph /  51.5 km/h 35.6 mph /  57.3 km/h 95 % 0.0 in /  0 mm
01:19 9.9 °F /  -12.3 °C 9.1 °F /  -12.7 °C 1013.1 in /  34303.6 hPa WSW 28.5 mph /  45.9 km/h 35.6 mph /  57.3 km/h 95 % 0.0 in /  0 mm
01:24 9.9 °F /  -12.3 °C 9.1 °F /  -12.7 °C 1013.1 in /  34303.6 hPa WSW 27.7 mph /  44.6 km/h 30.9 mph /  49.7 km/h 95 % 0.0 in /  0 mm
01:29 9.9 °F /  -12.3 °C 9.1 °F /  -12.7 °C 1013.1 in /  34303.6 hPa WSW 32.3 mph /  52 km/h 32.3 mph /  52 km/h 95 % 0.0 in /  0 mm
01:34 9.9 °F /  -12.3 °C 9.1 °F /  -12.7 °C 1013.1 in /  34303.6 hPa WSW 20.9 mph /  33.6 km/h 32.3 mph /  52 km/h 95 % 0.0 in /  0 mm
01:39 9.9 °F /  -12.3 °C 9.1 °F /  -12.7 °C 1013.1 in /  34303.6 hPa West 21.2 mph /  34.1 km/h 32.3 mph /  52 km/h 95 % 0.0 in /  0 mm
01:44 9.9 °F /  -12.3 °C 9.1 °F /  -12.7 °C 1013.1 in /  34303.6 hPa WSW 27.4 mph /  44.1 km/h 27.4 mph /  44.1 km/h 95 % 0.0 in /  0 mm
01:49 9.9 °F /  -12.3 °C 9.1 °F /  -12.7 °C 1013.1 in /  34303.6 hPa WSW 22.4 mph /  36 km/h 28.0 mph /  45.1 km/h 95 % 0.0 in /  0 mm
01:54 9.9 °F /  -12.3 °C 9.1 °F /  -12.7 °C 1012.1 in /  34269.7 hPa WSW 31.7 mph /  51 km/h 32.0 mph /  51.5 km/h 95 % 0.0 in /  0 mm
01:59 9.9 °F /  -12.3 °C 9.1 °F /  -12.7 °C 1012.1 in /  34269.7 hPa WSW 22.7 mph /  36.5 km/h 36.4 mph /  58.6 km/h 95 % 0.0 in /  0 mm
02:04 9.9 °F /  -12.3 °C 9.1 °F /  -12.7 °C 1012.1 in /  34269.7 hPa WSW 29.9 mph /  48.1 km/h 36.4 mph /  58.6 km/h 95 % 0.0 in /  0 mm
02:09 10.0 °F /  -12.2 °C 9.2 °F /  -12.7 °C 1013.1 in /  34303.6 hPa West 30.9 mph /  49.7 km/h 37.5 mph /  60.3 km/h 95 % 0.0 in /  0 mm
02:14 10.0 °F /  -12.2 °C 9.2 °F /  -12.7 °C 1013.1 in /  34303.6 hPa WSW 28.5 mph /  45.9 km/h 37.5 mph /  60.3 km/h 95 % 0.0 in /  0 mm
02:19 10.0 °F /  -12.2 °C 9.2 °F /  -12.7 °C 1013.1 in /  34303.6 hPa WSW 24.8 mph /  39.9 km/h 36.7 mph /  59.1 km/h 95 % 0.0 in /  0 mm
02:24 10.0 °F /  -12.2 °C 9.2 °F /  -12.7 °C 1011.1 in /  34235.8 hPa WSW 30.9 mph /  49.7 km/h 30.9 mph /  49.7 km/h 95 % 0.0 in /  0 mm
02:28 10.1 °F /  -12.2 °C 9.3 °F /  -12.6 °C 1011.1 in /  34235.8 hPa WSW 33.1 mph /  53.3 km/h 33.1 mph /  53.3 km/h 95 % 0.0 in /  0 mm
02:34 10.1 °F /  -12.2 °C 9.3 °F /  -12.6 °C 1011.1 in /  34235.8 hPa WSW 20.6 mph /  33.2 km/h 33.1 mph /  53.3 km/h 95 % 0.0 in /  0 mm
02:38 10.1 °F /  -12.2 °C 9.3 °F /  -12.6 °C 1011.1 in /  34235.8 hPa WSW 20.6 mph /  33.2 km/h 33.1 mph /  53.3 km/h 95 % 0.0 in /  0 mm
02:44 10.1 °F /  -12.2 °C 9.3 °F /  -12.6 °C 1011.1 in /  34235.8 hPa WSW 23.8 mph /  38.3 km/h 38.9 mph /  62.6 km/h 95 % 0.0 in /  0 mm
02:49 10.1 °F /  -12.2 °C 9.3 °F /  -12.6 °C 1011.1 in /  34235.8 hPa WSW 22.4 mph /  36 km/h 38.9 mph /  62.6 km/h 95 % 0.0 in /  0 mm
02:54 10.1 °F /  -12.2 °C 9.3 °F /  -12.6 °C 1011.1 in /  34235.8 hPa West 25.9 mph /  41.7 km/h 35.2 mph /  56.6 km/h 95 % 0.0 in /  0 mm
02:58 10.1 °F /  -12.2 °C 9.3 °F /  -12.6 °C 1011.1 in /  34235.8 hPa WSW 27.4 mph /  44.1 km/h 35.2 mph /  56.6 km/h 95 % 0.0 in /  0 mm
03:04 10.1 °F /  -12.2 °C 9.3 °F /  -12.6 °C 1011.1 in /  34235.8 hPa WSW 28.8 mph /  46.3 km/h 28.8 mph /  46.3 km/h 95 % 0.0 in /  0 mm
03:09 10.1 °F /  -12.2 °C 9.3 °F /  -12.6 °C 1010.0 in /  34198.6 hPa WSW 21.9 mph /  35.2 km/h 32.0 mph /  51.5 km/h 95 % 0.0 in /  0 mm
03:14 10.2 °F /  -12.1 °C 9.4 °F /  -12.6 °C 1010.0 in /  34198.6 hPa West 30.6 mph /  49.2 km/h 32.0 mph /  51.5 km/h 95 % 0.0 in /  0 mm
03:19 10.2 °F /  -12.1 °C 9.4 °F /  -12.6 °C 1010.0 in /  34198.6 hPa WSW 29.9 mph /  48.1 km/h 38.1 mph /  61.3 km/h 95 % 0.0 in /  0 mm
03:24 10.3 °F /  -12.1 °C 9.5 °F /  -12.5 °C 1012.1 in /  34269.7 hPa WSW 31.4 mph /  50.5 km/h 38.1 mph /  61.3 km/h 95 % 0.0 in /  0 mm
03:29 10.3 °F /  -12.1 °C 9.5 °F /  -12.5 °C 1012.1 in /  34269.7 hPa WSW 21.2 mph /  34.1 km/h 38.9 mph /  62.6 km/h 95 % 0.0 in /  0 mm
03:34 10.4 °F /  -12 °C 9.6 °F /  -12.4 °C 1012.1 in /  34269.7 hPa WSW 25.9 mph /  41.7 km/h 38.9 mph /  62.6 km/h 95 % 0.0 in /  0 mm
03:39 10.4 °F /  -12 °C 9.6 °F /  -12.4 °C 1010.0 in /  34198.6 hPa WSW 31.7 mph /  51 km/h 33.1 mph /  53.3 km/h 95 % 0.0 in /  0 mm
03:44 10.4 °F /  -12 °C 9.6 °F /  -12.4 °C 1010.0 in /  34198.6 hPa WSW 28.0 mph /  45.1 km/h 37.8 mph /  60.8 km/h 95 % 0.0 in /  0 mm
03:49 10.5 °F /  -11.9 °C 9.7 °F /  -12.4 °C 1010.0 in /  34198.6 hPa West 28.5 mph /  45.9 km/h 38.9 mph /  62.6 km/h 95 % 0.0 in /  0 mm
03:54 10.5 °F /  -11.9 °C 9.7 °F /  -12.4 °C 1011.1 in /  34235.8 hPa WSW 30.2 mph /  48.6 km/h 38.9 mph /  62.6 km/h 95 % 0.0 in /  0 mm
03:59 10.5 °F /  -11.9 °C 9.7 °F /  -12.4 °C 1011.1 in /  34235.8 hPa WSW 28.8 mph /  46.3 km/h 40.4 mph /  65 km/h 95 % 0.0 in /  0 mm
04:04 10.6 °F /  -11.9 °C 9.7 °F /  -12.4 °C 1011.1 in /  34235.8 hPa West 36.7 mph /  59.1 km/h 45.1 mph /  72.6 km/h 94 % 0.0 in /  0 mm
04:09 10.6 °F /  -11.9 °C 9.7 °F /  -12.4 °C 1011.1 in /  34235.8 hPa WSW 25.3 mph /  40.7 km/h 45.1 mph /  72.6 km/h 94 % 0.0 in /  0 mm
04:14 10.6 °F /  -11.9 °C 9.7 °F /  -12.4 °C 1011.1 in /  34235.8 hPa WSW 31.4 mph /  50.5 km/h 44.6 mph /  71.8 km/h 94 % 0.0 in /  0 mm
04:19 10.6 °F /  -11.9 °C 9.7 °F /  -12.4 °C 1011.1 in /  34235.8 hPa WSW 42.2 mph /  67.9 km/h 42.2 mph /  67.9 km/h 94 % 0.0 in /  0 mm
04:24 10.6 °F /  -11.9 °C 9.7 °F /  -12.4 °C 1011.1 in /  34235.8 hPa WSW 22.4 mph /  36 km/h 42.2 mph /  67.9 km/h 94 % 0.0 in /  0 mm
04:29 10.6 °F /  -11.9 °C 9.7 °F /  -12.4 °C 1011.1 in /  34235.8 hPa WSW 42.5 mph /  68.4 km/h 42.5 mph /  68.4 km/h 94 % 0.0 in /  0 mm
04:34 10.6 °F /  -11.9 °C 9.7 °F /  -12.4 °C 1011.1 in /  34235.8 hPa WSW 24.5 mph /  39.4 km/h 42.5 mph /  68.4 km/h 94 % 0.0 in /  0 mm
04:39 10.6 °F /  -11.9 °C 9.7 °F /  -12.4 °C 1011.1 in /  34235.8 hPa WSW 27.7 mph /  44.6 km/h 40.7 mph /  65.5 km/h 94 % 0.0 in /  0 mm
04:44 10.6 °F /  -11.9 °C 9.5 °F /  -12.5 °C 1011.1 in /  34235.8 hPa WSW 32.8 mph /  52.8 km/h 47.1 mph /  75.8 km/h 93 % 0.0 in /  0 mm
04:49 10.6 °F /  -11.9 °C 9.5 °F /  -12.5 °C 1011.1 in /  34235.8 hPa WSW 36.0 mph /  57.9 km/h 47.1 mph /  75.8 km/h 93 % 0.0 in /  0 mm
04:54 10.6 °F /  -11.9 °C 9.5 °F /  -12.5 °C 1010.0 in /  34198.6 hPa WSW 31.7 mph /  51 km/h 41.0 mph /  66 km/h 93 % 0.0 in /  0 mm
04:59 10.5 °F /  -11.9 °C 9.4 °F /  -12.6 °C 1010.0 in /  34198.6 hPa WSW 35.2 mph /  56.6 km/h 41.0 mph /  66 km/h 93 % 0.0 in /  0 mm
05:04 10.5 °F /  -11.9 °C 9.4 °F /  -12.6 °C 1010.0 in /  34198.6 hPa WSW 30.9 mph /  49.7 km/h 41.7 mph /  67.1 km/h 93 % 0.0 in /  0 mm
05:09 10.5 °F /  -11.9 °C 9.4 °F /  -12.6 °C 1010.0 in /  34198.6 hPa WSW 25.3 mph /  40.7 km/h 41.7 mph /  67.1 km/h 93 % 0.0 in /  0 mm
05:14 10.5 °F /  -11.9 °C 9.4 °F /  -12.6 °C 1010.0 in /  34198.6 hPa WSW 37.0 mph /  59.5 km/h 39.3 mph /  63.2 km/h 93 % 0.0 in /  0 mm
05:19 10.5 °F /  -11.9 °C 9.4 °F /  -12.6 °C 1010.0 in /  34198.6 hPa West 25.3 mph /  40.7 km/h 39.3 mph /  63.2 km/h 93 % 0.0 in /  0 mm
05:24 10.5 °F /  -11.9 °C 9.4 °F /  -12.6 °C 1010.0 in /  34198.6 hPa WSW 30.6 mph /  49.2 km/h 39.3 mph /  63.2 km/h 93 % 0.0 in /  0 mm
05:29 10.5 °F /  -11.9 °C 9.4 °F /  -12.6 °C 1010.0 in /  34198.6 hPa West 33.5 mph /  53.9 km/h 42.5 mph /  68.4 km/h 93 % 0.0 in /  0 mm
05:34 10.5 °F /  -11.9 °C 9.4 °F /  -12.6 °C 1010.0 in /  34198.6 hPa WSW 28.8 mph /  46.3 km/h 42.5 mph /  68.4 km/h 93 % 0.0 in /  0 mm
05:39 10.5 °F /  -11.9 °C 9.4 °F /  -12.6 °C 1010.0 in /  34198.6 hPa West 36.0 mph /  57.9 km/h 40.4 mph /  65 km/h 93 % 0.0 in /  0 mm
05:44 10.5 °F /  -11.9 °C 9.4 °F /  -12.6 °C 1010.0 in /  34198.6 hPa WSW 24.5 mph /  39.4 km/h 38.9 mph /  62.6 km/h 93 % 0.0 in /  0 mm
05:49 10.5 °F /  -11.9 °C 9.4 °F /  -12.6 °C 1010.0 in /  34198.6 hPa WSW 23.3 mph /  37.5 km/h 41.7 mph /  67.1 km/h 93 % 0.0 in /  0 mm
05:54 10.5 °F /  -11.9 °C 9.4 °F /  -12.6 °C 1010.0 in /  34198.6 hPa WSW 30.6 mph /  49.2 km/h 41.7 mph /  67.1 km/h 93 % 0.0 in /  0 mm
05:59 10.4 °F /  -12 °C 9.4 °F /  -12.6 °C 1010.0 in /  34198.6 hPa WSW 36.0 mph /  57.9 km/h 38.1 mph /  61.3 km/h 94 % 0.0 in /  0 mm
06:04 10.4 °F /  -12 °C 9.4 °F /  -12.6 °C 1010.0 in /  34198.6 hPa WSW 24.8 mph /  39.9 km/h 41.4 mph /  66.6 km/h 94 % 0.0 in /  0 mm
06:09 10.4 °F /  -12 °C 9.4 °F /  -12.6 °C 1010.0 in /  34198.6 hPa WSW 36.0 mph /  57.9 km/h 41.4 mph /  66.6 km/h 94 % 0.0 in /  0 mm
06:14 10.4 °F /  -12 °C 9.4 °F /  -12.6 °C 1010.0 in /  34198.6 hPa WSW 23.0 mph /  37 km/h 40.4 mph /  65 km/h 94 % 0.0 in /  0 mm
06:19 10.4 °F /  -12 °C 9.4 °F /  -12.6 °C 1010.0 in /  34198.6 hPa West 38.1 mph /  61.3 km/h 38.1 mph /  61.3 km/h 94 % 0.0 in /  0 mm
06:24 10.4 °F /  -12 °C 9.4 °F /  -12.6 °C 1010.0 in /  34198.6 hPa WSW 30.6 mph /  49.2 km/h 38.1 mph /  61.3 km/h 94 % 0.0 in /  0 mm
06:29 10.5 °F /  -11.9 °C 9.6 °F /  -12.4 °C 1010.0 in /  34198.6 hPa WSW 24.5 mph /  39.4 km/h 38.5 mph /  62 km/h 94 % 0.0 in /  0 mm
06:34 10.4 °F /  -12 °C 9.4 °F /  -12.6 °C 1010.0 in /  34198.6 hPa West 30.6 mph /  49.2 km/h 38.5 mph /  62 km/h 94 % 0.0 in /  0 mm
06:39 10.4 °F /  -12 °C 9.4 °F /  -12.6 °C 1010.0 in /  34198.6 hPa WSW 23.0 mph /  37 km/h 41.0 mph /  66 km/h 94 % 0.0 in /  0 mm
06:44 10.4 °F /  -12 °C 9.4 °F /  -12.6 °C 1010.0 in /  34198.6 hPa WSW 20.1 mph /  32.3 km/h 41.4 mph /  66.6 km/h 94 % 0.0 in /  0 mm
06:49 10.4 °F /  -12 °C 9.4 °F /  -12.6 °C 1010.0 in /  34198.6 hPa WSW 31.7 mph /  51 km/h 41.4 mph /  66.6 km/h 94 % 0.0 in /  0 mm
06:54 10.4 °F /  -12 °C 9.4 °F /  -12.6 °C 1009.0 in /  34164.7 hPa West 32.3 mph /  52 km/h 38.9 mph /  62.6 km/h 94 % 0.0 in /  0 mm
06:59 10.4 °F /  -12 °C 9.4 °F /  -12.6 °C 1009.0 in /  34164.7 hPa WSW 30.9 mph /  49.7 km/h 36.7 mph /  59.1 km/h 94 % 0.0 in /  0 mm
07:04 10.4 °F /  -12 °C 9.4 °F /  -12.6 °C 1009.0 in /  34164.7 hPa WSW 27.0 mph /  43.5 km/h 32.3 mph /  52 km/h 94 % 0.0 in /  0 mm
07:09 10.4 °F /  -12 °C 9.4 °F /  -12.6 °C 1010.0 in /  34198.6 hPa West 24.5 mph /  39.4 km/h 41.0 mph /  66 km/h 94 % 0.0 in /  0 mm
07:14 10.5 °F /  -11.9 °C 9.4 °F /  -12.6 °C 1010.0 in /  34198.6 hPa WSW 24.5 mph /  39.4 km/h 41.0 mph /  66 km/h 93 % 0.0 in /  0 mm
07:19 10.5 °F /  -11.9 °C 9.4 °F /  -12.6 °C 1010.0 in /  34198.6 hPa West 32.0 mph /  51.5 km/h 40.7 mph /  65.5 km/h 93 % 0.0 in /  0 mm
07:24 10.5 °F /  -11.9 °C 9.4 °F /  -12.6 °C 1010.0 in /  34198.6 hPa WSW 32.0 mph /  51.5 km/h 32.0 mph /  51.5 km/h 93 % 0.0 in /  0 mm
07:29 10.5 °F /  -11.9 °C 9.4 °F /  -12.6 °C 1010.0 in /  34198.6 hPa WSW 23.8 mph /  38.3 km/h 38.9 mph /  62.6 km/h 93 % 0.0 in /  0 mm
07:34 10.5 °F /  -11.9 °C 9.4 °F /  -12.6 °C 1010.0 in /  34198.6 hPa West 20.9 mph /  33.6 km/h 38.9 mph /  62.6 km/h 93 % 0.0 in /  0 mm
07:39 10.5 °F /  -11.9 °C 9.4 °F /  -12.6 °C 1010.0 in /  34198.6 hPa WSW 26.7 mph /  43 km/h 38.1 mph /  61.3 km/h 93 % 0.0 in /  0 mm
07:44 10.5 °F /  -11.9 °C 9.4 °F /  -12.6 °C 1010.0 in /  34198.6 hPa West 36.7 mph /  59.1 km/h 38.1 mph /  61.3 km/h 93 % 0.0 in /  0 mm
07:49 10.5 °F /  -11.9 °C 9.2 °F /  -12.7 °C 1010.0 in /  34198.6 hPa WSW 20.9 mph /  33.6 km/h 41.0 mph /  66 km/h 92 % 0.0 in /  0 mm
07:54 10.6 °F /  -11.9 °C 9.3 °F /  -12.6 °C 1010.0 in /  34198.6 hPa West 40.4 mph /  65 km/h 41.7 mph /  67.1 km/h 92 % 0.0 in /  0 mm
07:59 10.6 °F /  -11.9 °C 9.3 °F /  -12.6 °C 1010.0 in /  34198.6 hPa WSW 38.1 mph /  61.3 km/h 46.5 mph /  74.8 km/h 92 % 0.0 in /  0 mm
08:04 10.6 °F /  -11.9 °C 9.3 °F /  -12.6 °C 1010.0 in /  34198.6 hPa WSW 30.9 mph /  49.7 km/h 46.5 mph /  74.8 km/h 92 % 0.0 in /  0 mm
08:09 10.6 °F /  -11.9 °C 9.3 °F /  -12.6 °C 1010.0 in /  34198.6 hPa WSW 36.0 mph /  57.9 km/h 40.7 mph /  65.5 km/h 92 % 0.0 in /  0 mm
08:14 10.6 °F /  -11.9 °C 9.3 °F /  -12.6 °C 1010.0 in /  34198.6 hPa WSW 20.6 mph /  33.2 km/h 40.7 mph /  65.5 km/h 92 % 0.0 in /  0 mm
08:19 10.6 °F /  -11.9 °C 9.3 °F /  -12.6 °C 1010.0 in /  34198.6 hPa WNW 35.2 mph /  56.6 km/h 38.9 mph /  62.6 km/h 92 % 0.0 in /  0 mm
08:24 10.6 °F /  -11.9 °C 9.3 °F /  -12.6 °C 1011.1 in /  34235.8 hPa WSW 30.2 mph /  48.6 km/h 38.1 mph /  61.3 km/h 92 % 0.0 in /  0 mm
08:29 10.7 °F /  -11.8 °C 9.4 °F /  -12.6 °C 1011.1 in /  34235.8 hPa WSW 28.0 mph /  45.1 km/h 44.6 mph /  71.8 km/h 92 % 0.0 in /  0 mm
08:34 10.7 °F /  -11.8 °C 9.4 °F /  -12.6 °C 1011.1 in /  34235.8 hPa WSW 25.9 mph /  41.7 km/h 44.6 mph /  71.8 km/h 92 % 0.0 in /  0 mm
08:35 10.7 °F /  -11.8 °C 9.4 °F /  -12.6 °C 1011.1 in /  34235.8 hPa WSW 28.8 mph /  46.3 km/h 44.6 mph /  71.8 km/h 92 % 0.0 in /  0 mm
08:40 10.7 °F /  -11.8 °C 9.4 °F /  -12.6 °C 1010.0 in /  34198.6 hPa WSW 35.2 mph /  56.6 km/h 48.9 mph /  78.7 km/h 92 % 0.0 in /  0 mm
08:45 10.7 °F /  -11.8 °C 9.4 °F /  -12.6 °C 1010.0 in /  34198.6 hPa West 38.1 mph /  61.3 km/h 48.9 mph /  78.7 km/h 92 % 0.0 in /  0 mm
08:50 10.7 °F /  -11.8 °C 9.6 °F /  -12.4 °C 1010.0 in /  34198.6 hPa WSW 32.0 mph /  51.5 km/h 45.7 mph /  73.5 km/h 93 % 0.0 in /  0 mm
08:55 10.7 °F /  -11.8 °C 9.6 °F /  -12.4 °C 1011.1 in /  34235.8 hPa WSW 32.0 mph /  51.5 km/h 45.7 mph /  73.5 km/h 93 % 0.0 in /  0 mm
09:00 10.8 °F /  -11.8 °C 9.6 °F /  -12.4 °C 1011.1 in /  34235.8 hPa West 32.0 mph /  51.5 km/h 46.0 mph /  74 km/h 92 % 0.0 in /  0 mm
09:05 10.8 °F /  -11.8 °C 9.7 °F /  -12.4 °C 1011.1 in /  34235.8 hPa West 37.8 mph /  60.8 km/h 46.0 mph /  74 km/h 93 % 0.0 in /  0 mm
09:10 10.8 °F /  -11.8 °C 9.7 °F /  -12.4 °C 1011.1 in /  34235.8 hPa WSW 23.3 mph /  37.5 km/h 43.1 mph /  69.4 km/h 93 % 0.0 in /  0 mm
09:15 10.7 °F /  -11.8 °C 9.8 °F /  -12.3 °C 1011.1 in /  34235.8 hPa WSW 26.2 mph /  42.2 km/h 43.1 mph /  69.4 km/h 94 % 0.0 in /  0 mm
09:20 10.7 °F /  -11.8 °C 9.8 °F /  -12.3 °C 1011.1 in /  34235.8 hPa West 40.4 mph /  65 km/h 40.4 mph /  65 km/h 94 % 0.0 in /  0 mm
09:25 10.7 °F /  -11.8 °C 9.8 °F /  -12.3 °C 1011.1 in /  34235.8 hPa West 36.0 mph /  57.9 km/h 40.4 mph /  65 km/h 94 % 0.0 in /  0 mm
09:30 10.7 °F /  -11.8 °C 9.8 °F /  -12.3 °C 1011.1 in /  34235.8 hPa WSW 22.7 mph /  36.5 km/h 50.4 mph /  81.1 km/h 94 % 0.0 in /  0 mm
09:35 10.7 °F /  -11.8 °C 9.8 °F /  -12.3 °C 1011.1 in /  34235.8 hPa WSW 30.2 mph /  48.6 km/h 50.4 mph /  81.1 km/h 94 % 0.0 in /  0 mm
09:40 10.7 °F /  -11.8 °C 9.9 °F /  -12.3 °C 1010.0 in /  34198.6 hPa WSW 38.9 mph /  62.6 km/h 42.5 mph /  68.4 km/h 95 % 0.0 in /  0 mm
09:45 10.7 °F /  -11.8 °C 9.9 °F /  -12.3 °C 1010.0 in /  34198.6 hPa WSW 28.0 mph /  45.1 km/h 43.6 mph /  70.2 km/h 95 % 0.0 in /  0 mm
09:50 10.7 °F /  -11.8 °C 9.9 °F /  -12.3 °C 1010.0 in /  34198.6 hPa West 42.2 mph /  67.9 km/h 43.6 mph /  70.2 km/h 95 % 0.0 in /  0 mm
09:55 10.7 °F /  -11.8 °C 9.9 °F /  -12.3 °C 1010.0 in /  34198.6 hPa WSW 34.3 mph /  55.2 km/h 43.6 mph /  70.2 km/h 95 % 0.0 in /  0 mm
10:00 10.7 °F /  -11.8 °C 9.9 °F /  -12.3 °C 1010.0 in /  34198.6 hPa WSW 24.8 mph /  39.9 km/h 48.3 mph /  77.7 km/h 95 % 0.0 in /  0 mm
10:05 10.7 °F /  -11.8 °C 9.9 °F /  -12.3 °C 1010.0 in /  34198.6 hPa WSW 38.5 mph /  62 km/h 48.3 mph /  77.7 km/h 95 % 0.0 in /  0 mm
10:10 10.7 °F /  -11.8 °C 9.9 °F /  -12.3 °C 1011.1 in /  34235.8 hPa West 36.7 mph /  59.1 km/h 45.7 mph /  73.5 km/h 95 % 0.0 in /  0 mm
10:15 10.8 °F /  -11.8 °C 9.8 °F /  -12.3 °C 1011.1 in /  34235.8 hPa West 28.8 mph /  46.3 km/h 43.1 mph /  69.4 km/h 94 % 0.0 in /  0 mm
10:20 10.8 °F /  -11.8 °C 9.8 °F /  -12.3 °C 1011.1 in /  34235.8 hPa West 19.5 mph /  31.4 km/h 43.1 mph /  69.4 km/h 94 % 0.0 in /  0 mm
10:25 10.8 °F /  -11.8 °C 9.8 °F /  -12.3 °C 1011.1 in /  34235.8 hPa West 26.2 mph /  42.2 km/h 43.1 mph /  69.4 km/h 94 % 0.0 in /  0 mm
10:30 10.9 °F /  -11.7 °C 9.9 °F /  -12.3 °C 1011.1 in /  34235.8 hPa WSW 23.8 mph /  38.3 km/h 43.1 mph /  69.4 km/h 94 % 0.0 in /  0 mm
10:35 10.9 °F /  -11.7 °C 9.9 °F /  -12.3 °C 1011.1 in /  34235.8 hPa WSW 30.6 mph /  49.2 km/h 45.1 mph /  72.6 km/h 94 % 0.0 in /  0 mm
10:40 10.9 °F /  -11.7 °C 9.9 °F /  -12.3 °C 1011.1 in /  34235.8 hPa West 24.8 mph /  39.9 km/h 45.1 mph /  72.6 km/h 94 % 0.0 in /  0 mm
10:45 10.9 °F /  -11.7 °C 9.9 °F /  -12.3 °C 1011.1 in /  34235.8 hPa WSW 41.7 mph /  67.1 km/h 42.5 mph /  68.4 km/h 94 % 0.0 in /  0 mm
10:50 10.9 °F /  -11.7 °C 9.9 °F /  -12.3 °C 1011.1 in /  34235.8 hPa WSW 23.3 mph /  37.5 km/h 42.5 mph /  68.4 km/h 94 % 0.0 in /  0 mm
10:55 10.9 °F /  -11.7 °C 9.9 °F /  -12.3 °C 1011.1 in /  34235.8 hPa SSW 35.6 mph /  57.3 km/h 41.7 mph /  67.1 km/h 94 % 0.0 in /  0 mm
11:00 10.9 °F /  -11.7 °C 10.1 °F /  -12.2 °C 1011.1 in /  34235.8 hPa West 25.3 mph /  40.7 km/h 41.4 mph /  66.6 km/h 95 % 0.0 in /  0 mm
11:05 10.8 °F /  -11.8 °C 10.0 °F /  -12.2 °C 1011.1 in /  34235.8 hPa West 38.5 mph /  62 km/h 48.3 mph /  77.7 km/h 95 % 0.0 in /  0 mm
11:10 10.8 °F /  -11.8 °C 10.0 °F /  -12.2 °C 1011.1 in /  34235.8 hPa WSW 28.8 mph /  46.3 km/h 48.3 mph /  77.7 km/h 95 % 0.0 in /  0 mm
11:15 10.9 °F /  -11.7 °C 10.1 °F /  -12.2 °C 1011.1 in /  34235.8 hPa WSW 24.5 mph /  39.4 km/h 46.0 mph /  74 km/h 95 % 0.0 in /  0 mm
11:20 11.0 °F /  -11.7 °C 10.2 °F /  -12.1 °C 1011.1 in /  34235.8 hPa WSW 26.7 mph /  43 km/h 44.6 mph /  71.8 km/h 95 % 0.0 in /  0 mm
11:25 11.1 °F /  -11.6 °C 10.3 °F /  -12.1 °C 1011.1 in /  34235.8 hPa West 34.6 mph /  55.7 km/h 42.2 mph /  67.9 km/h 95 % 0.0 in /  0 mm
11:30 11.2 °F /  -11.6 °C 10.4 °F /  -12 °C 1011.1 in /  34235.8 hPa SW 24.8 mph /  39.9 km/h 49.2 mph /  79.2 km/h 95 % 0.0 in /  0 mm
11:35 11.2 °F /  -11.6 °C 10.2 °F /  -12.1 °C 1011.1 in /  34235.8 hPa WSW 33.5 mph /  53.9 km/h 49.2 mph /  79.2 km/h 94 % 0.0 in /  0 mm
11:40 11.2 °F /  -11.6 °C 10.2 °F /  -12.1 °C 1011.1 in /  34235.8 hPa West 27.7 mph /  44.6 km/h 39.3 mph /  63.2 km/h 94 % 0.0 in /  0 mm
11:45 11.3 °F /  -11.5 °C 10.3 °F /  -12.1 °C 1011.1 in /  34235.8 hPa West 38.5 mph /  62 km/h 46.5 mph /  74.8 km/h 94 % 0.0 in /  0 mm
11:50 11.3 °F /  -11.5 °C 10.3 °F /  -12.1 °C 1011.1 in /  34235.8 hPa WSW 36.4 mph /  58.6 km/h 46.5 mph /  74.8 km/h 94 % 0.0 in /  0 mm
11:55 11.4 °F /  -11.4 °C 10.4 °F /  -12 °C 1011.1 in /  34235.8 hPa WSW 28.0 mph /  45.1 km/h 48.3 mph /  77.7 km/h 94 % 0.0 in /  0 mm
12:00 11.4 °F /  -11.4 °C 10.6 °F /  -11.9 °C 1011.1 in /  34235.8 hPa West 28.5 mph /  45.9 km/h 48.3 mph /  77.7 km/h 94 % 0.0 in /  0 mm
12:05 11.4 °F /  -11.4 °C 10.4 °F /  -12 °C 1011.1 in /  34235.8 hPa West 35.2 mph /  56.6 km/h 43.9 mph /  70.6 km/h 93 % 0.0 in /  0 mm
12:10 11.4 °F /  -11.4 °C 10.4 °F /  -12 °C 1011.1 in /  34235.8 hPa WSW 42.5 mph /  68.4 km/h 46.8 mph /  75.3 km/h 93 % 0.0 in /  0 mm
12:15 11.4 °F /  -11.4 °C 10.1 °F /  -12.2 °C 1011.1 in /  34235.8 hPa West 46.5 mph /  74.8 km/h 51.2 mph /  82.4 km/h 92 % 0.0 in /  0 mm
12:20 11.4 °F /  -11.4 °C 10.3 °F /  -12.1 °C 1011.1 in /  34235.8 hPa WSW 36.0 mph /  57.9 km/h 51.2 mph /  82.4 km/h 93 % 0.0 in /  0 mm
12:25 11.4 °F /  -11.4 °C 10.3 °F /  -12.1 °C 1011.1 in /  34235.8 hPa WSW 40.7 mph /  65.5 km/h 46.8 mph /  75.3 km/h 93 % 0.0 in /  0 mm
12:30 11.4 °F /  -11.4 °C 10.3 °F /  -12.1 °C 1011.1 in /  34235.8 hPa West 36.7 mph /  59.1 km/h 45.7 mph /  73.5 km/h 93 % 0.0 in /  0 mm
12:35 11.4 °F /  -11.4 °C 10.3 °F /  -12.1 °C 1011.1 in /  34235.8 hPa WSW 31.4 mph /  50.5 km/h 45.7 mph /  73.5 km/h 93 % 0.0 in /  0 mm
12:40 11.4 °F /  -11.4 °C 10.3 °F /  -12.1 °C 1010.0 in /  34198.6 hPa West 33.5 mph /  53.9 km/h 45.7 mph /  73.5 km/h 93 % 0.0 in /  0 mm
12:45 11.3 °F /  -11.5 °C 10.2 °F /  -12.1 °C 1010.0 in /  34198.6 hPa WSW 38.1 mph /  61.3 km/h 46.5 mph /  74.8 km/h 93 % 0.0 in /  0 mm
12:50 11.3 °F /  -11.5 °C 10.2 °F /  -12.1 °C 1010.0 in /  34198.6 hPa West 43.1 mph /  69.4 km/h 46.5 mph /  74.8 km/h 93 % 0.0 in /  0 mm
12:55 11.3 °F /  -11.5 °C 10.3 °F /  -12.1 °C 1010.0 in /  34198.6 hPa West 25.6 mph /  41.2 km/h 44.6 mph /  71.8 km/h 94 % 0.0 in /  0 mm
13:00 11.3 °F /  -11.5 °C 10.3 °F /  -12.1 °C 1010.0 in /  34198.6 hPa WSW 45.1 mph /  72.6 km/h 47.5 mph /  76.4 km/h 94 % 0.0 in /  0 mm
13:05 11.2 °F /  -11.6 °C 10.2 °F /  -12.1 °C 1010.0 in /  34198.6 hPa West 47.9 mph /  77.1 km/h 49.2 mph /  79.2 km/h 94 % 0.0 in /  0 mm
13:10 11.2 °F /  -11.6 °C 10.2 °F /  -12.1 °C 1010.0 in /  34198.6 hPa WSW 36.4 mph /  58.6 km/h 49.2 mph /  79.2 km/h 94 % 0.0 in /  0 mm
13:15 11.2 °F /  -11.6 °C 10.2 °F /  -12.1 °C 1010.0 in /  34198.6 hPa West 28.5 mph /  45.9 km/h 44.6 mph /  71.8 km/h 94 % 0.0 in /  0 mm
13:20 11.2 °F /  -11.6 °C 10.2 °F /  -12.1 °C 1010.0 in /  34198.6 hPa West 36.0 mph /  57.9 km/h 46.0 mph /  74 km/h 94 % 0.0 in /  0 mm
13:25 11.3 °F /  -11.5 °C 10.5 °F /  -11.9 °C 1010.0 in /  34198.6 hPa WSW 38.5 mph /  62 km/h 46.0 mph /  74 km/h 95 % 0.0 in /  0 mm
13:30 11.3 °F /  -11.5 °C 10.3 °F /  -12.1 °C 1010.0 in /  34198.6 hPa WSW 27.7 mph /  44.6 km/h 43.6 mph /  70.2 km/h 94 % 0.0 in /  0 mm
13:35 11.3 °F /  -11.5 °C 10.3 °F /  -12.1 °C 1010.0 in /  34198.6 hPa WSW 47.5 mph /  76.4 km/h 47.5 mph /  76.4 km/h 94 % 0.0 in /  0 mm
13:40 11.3 °F /  -11.5 °C 10.3 °F /  -12.1 °C 1010.0 in /  34198.6 hPa WSW 34.3 mph /  55.2 km/h 47.5 mph /  76.4 km/h 94 % 0.0 in /  0 mm
13:45 11.3 °F /  -11.5 °C 10.3 °F /  -12.1 °C 1010.0 in /  34198.6 hPa West 31.7 mph /  51 km/h 52.6 mph /  84.6 km/h 94 % 0.0 in /  0 mm
13:50 11.3 °F /  -11.5 °C 10.3 °F /  -12.1 °C 1010.0 in /  34198.6 hPa WSW 36.7 mph /  59.1 km/h 52.6 mph /  84.6 km/h 94 % 0.0 in /  0 mm
13:55 11.4 °F /  -11.4 °C 10.3 °F /  -12.1 °C 1009.0 in /  34164.7 hPa WSW 36.0 mph /  57.9 km/h 50.0 mph /  80.5 km/h 93 % 0.0 in /  0 mm
14:00 11.4 °F /  -11.4 °C 10.3 °F /  -12.1 °C 1009.0 in /  34164.7 hPa WSW 43.6 mph /  70.2 km/h 50.0 mph /  80.5 km/h 93 % 0.0 in /  0 mm
14:05 11.4 °F /  -11.4 °C 10.3 °F /  -12.1 °C 1009.0 in /  34164.7 hPa West 31.7 mph /  51 km/h 51.2 mph /  82.4 km/h 93 % 0.0 in /  0 mm
14:10 11.3 °F /  -11.5 °C 10.2 °F /  -12.1 °C 1009.0 in /  34164.7 hPa WSW 26.7 mph /  43 km/h 51.2 mph /  82.4 km/h 93 % 0.0 in /  0 mm
14:15 11.3 °F /  -11.5 °C 10.2 °F /  -12.1 °C 1009.0 in /  34164.7 hPa WSW 23.0 mph /  37 km/h 52.1 mph /  83.8 km/h 93 % 0.0 in /  0 mm
14:20 11.3 °F /  -11.5 °C 10.2 °F /  -12.1 °C 1009.0 in /  34164.7 hPa WSW 42.5 mph /  68.4 km/h 52.1 mph /  83.8 km/h 93 % 0.0 in /  0 mm
14:25 11.3 °F /  -11.5 °C 10.2 °F /  -12.1 °C 1009.0 in /  34164.7 hPa WSW 33.5 mph /  53.9 km/h 55.8 mph /  89.8 km/h 93 % 0.0 in /  0 mm
14:26 11.3 °F /  -11.5 °C 10.2 °F /  -12.1 °C 1009.0 in /  34164.7 hPa WSW 24.5 mph /  39.4 km/h 55.8 mph /  89.8 km/h 93 % 0.0 in /  0 mm
14:31 11.3 °F /  -11.5 °C 10.2 °F /  -12.1 °C 1009.0 in /  34164.7 hPa WSW 36.7 mph /  59.1 km/h 55.8 mph /  89.8 km/h 93 % 0.0 in /  0 mm
14:36 11.4 °F /  -11.4 °C 10.3 °F /  -12.1 °C 1009.0 in /  34164.7 hPa WSW 37.8 mph /  60.8 km/h 51.2 mph /  82.4 km/h 93 % 0.0 in /  0 mm
14:41 11.4 °F /  -11.4 °C 10.3 °F /  -12.1 °C 1008.0 in /  34130.9 hPa West 36.7 mph /  59.1 km/h 48.6 mph /  78.2 km/h 93 % 0.0 in /  0 mm
14:46 11.4 °F /  -11.4 °C 10.4 °F /  -12 °C 1008.0 in /  34130.9 hPa West 41.0 mph /  66 km/h 48.6 mph /  78.2 km/h 93 % 0.0 in /  0 mm
14:51 11.4 °F /  -11.4 °C 10.4 °F /  -12 °C 1008.0 in /  34130.9 hPa WSW 38.9 mph /  62.6 km/h 45.1 mph /  72.6 km/h 93 % 0.0 in /  0 mm
14:56 11.4 °F /  -11.4 °C 10.3 °F /  -12.1 °C 1009.0 in /  34164.7 hPa WSW 32.3 mph /  52 km/h 42.8 mph /  68.9 km/h 93 % 0.0 in /  0 mm
15:01 11.4 °F /  -11.4 °C 10.3 °F /  -12.1 °C 1009.0 in /  34164.7 hPa West 42.2 mph /  67.9 km/h 52.6 mph /  84.6 km/h 93 % 0.0 in /  0 mm
15:06 11.3 °F /  -11.5 °C 10.2 °F /  -12.1 °C 1009.0 in /  34164.7 hPa West 31.7 mph /  51 km/h 52.6 mph /  84.6 km/h 93 % 0.0 in /  0 mm
15:11 11.3 °F /  -11.5 °C 10.2 °F /  -12.1 °C 1009.0 in /  34164.7 hPa WSW 43.9 mph /  70.6 km/h 48.3 mph /  77.7 km/h 93 % 0.0 in /  0 mm
15:16 11.3 °F /  -11.5 °C 10.2 °F /  -12.1 °C 1009.0 in /  34164.7 hPa WSW 36.4 mph /  58.6 km/h 46.0 mph /  74 km/h 93 % 0.0 in /  0 mm
15:21 11.2 °F /  -11.6 °C 10.1 °F /  -12.2 °C 1009.0 in /  34164.7 hPa WSW 40.7 mph /  65.5 km/h 46.0 mph /  74 km/h 93 % 0.0 in /  0 mm
15:22 11.2 °F /  -11.6 °C 10.1 °F /  -12.2 °C 1009.0 in /  34164.7 hPa WSW 32.0 mph /  51.5 km/h 46.0 mph /  74 km/h 93 % 0.0 in /  0 mm
15:27 11.2 °F /  -11.6 °C 10.1 °F /  -12.2 °C 1009.0 in /  34164.7 hPa WSW 21.6 mph /  34.8 km/h 48.3 mph /  77.7 km/h 93 % 0.0 in /  0 mm
15:32 11.2 °F /  -11.6 °C 10.1 °F /  -12.2 °C 1009.0 in /  34164.7 hPa West 32.3 mph /  52 km/h 48.3 mph /  77.7 km/h 93 % 0.0 in /  0 mm
15:37 11.2 °F /  -11.6 °C 10.1 °F /  -12.2 °C 1009.0 in /  34164.7 hPa WSW 43.6 mph /  70.2 km/h 49.2 mph /  79.2 km/h 93 % 0.0 in /  0 mm
15:42 11.1 °F /  -11.6 °C 10.0 °F /  -12.2 °C 1010.0 in /  34198.6 hPa WSW 24.5 mph /  39.4 km/h 49.2 mph /  79.2 km/h 93 % 0.0 in /  0 mm
15:47 11.1 °F /  -11.6 °C 10.0 °F /  -12.2 °C 1010.0 in /  34198.6 hPa WSW 30.6 mph /  49.2 km/h 51.8 mph /  83.4 km/h 93 % 0.0 in /  0 mm
15:52 11.1 °F /  -11.6 °C 10.0 °F /  -12.2 °C 1010.0 in /  34198.6 hPa WSW 27.0 mph /  43.5 km/h 51.8 mph /  83.4 km/h 93 % 0.0 in /  0 mm
15:57 11.1 °F /  -11.6 °C 10.2 °F /  -12.1 °C 1009.0 in /  34164.7 hPa WSW 25.6 mph /  41.2 km/h 48.9 mph /  78.7 km/h 94 % 0.0 in /  0 mm
16:02 11.0 °F /  -11.7 °C 10.1 °F /  -12.2 °C 1009.0 in /  34164.7 hPa WSW 37.0 mph /  59.5 km/h 42.2 mph /  67.9 km/h 94 % 0.0 in /  0 mm
16:07 10.9 °F /  -11.7 °C 9.9 °F /  -12.3 °C 1009.0 in /  34164.7 hPa WSW 24.5 mph /  39.4 km/h 42.2 mph /  67.9 km/h 94 % 0.0 in /  0 mm
16:12 10.9 °F /  -11.7 °C 10.1 °F /  -12.2 °C 1008.0 in /  34130.9 hPa WSW 32.8 mph /  52.8 km/h 41.7 mph /  67.1 km/h 95 % 0.0 in /  0 mm
16:17 10.8 °F /  -11.8 °C 10.0 °F /  -12.2 °C 1008.0 in /  34130.9 hPa WSW 33.8 mph /  54.4 km/h 43.1 mph /  69.4 km/h 95 % 0.0 in /  0 mm
16:22 10.7 °F /  -11.8 °C 9.9 °F /  -12.3 °C 1008.0 in /  34130.9 hPa WSW 29.9 mph /  48.1 km/h 43.1 mph /  69.4 km/h 95 % 0.0 in /  0 mm
16:27 10.7 °F /  -11.8 °C 9.9 °F /  -12.3 °C 1009.0 in /  34164.7 hPa West 20.6 mph /  33.2 km/h 43.1 mph /  69.4 km/h 95 % 0.0 in /  0 mm
16:32 10.7 °F /  -11.8 °C 9.9 °F /  -12.3 °C 1009.0 in /  34164.7 hPa WSW 36.7 mph /  59.1 km/h 44.6 mph /  71.8 km/h 95 % 0.0 in /  0 mm
16:37 10.7 °F /  -11.8 °C 9.9 °F /  -12.3 °C 1009.0 in /  34164.7 hPa WSW 27.4 mph /  44.1 km/h 44.6 mph /  71.8 km/h 95 % 0.0 in /  0 mm
16:42 10.7 °F /  -11.8 °C 9.9 °F /  -12.3 °C 1009.0 in /  34164.7 hPa WSW 28.5 mph /  45.9 km/h 40.7 mph /  65.5 km/h 95 % 0.0 in /  0 mm
16:47 10.7 °F /  -11.8 °C 9.9 °F /  -12.3 °C 1009.0 in /  34164.7 hPa West 32.8 mph /  52.8 km/h 41.4 mph /  66.6 km/h 95 % 0.0 in /  0 mm
16:52 10.7 °F /  -11.8 °C 9.9 °F /  -12.3 °C 1009.0 in /  34164.7 hPa West 29.1 mph /  46.8 km/h 41.4 mph /  66.6 km/h 95 % 0.0 in /  0 mm
16:57 10.7 °F /  -11.8 °C 9.9 °F /  -12.3 °C 1009.0 in /  34164.7 hPa West 29.9 mph /  48.1 km/h 43.9 mph /  70.6 km/h 95 % 0.0 in /  0 mm
17:02 10.7 °F /  -11.8 °C 9.9 °F /  -12.3 °C 1009.0 in /  34164.7 hPa WSW 27.7 mph /  44.6 km/h 43.9 mph /  70.6 km/h 95 % 0.0 in /  0 mm
17:07 10.7 °F /  -11.8 °C 9.9 °F /  -12.3 °C 1009.0 in /  34164.7 hPa West 41.0 mph /  66 km/h 47.5 mph /  76.4 km/h 95 % 0.0 in /  0 mm
17:12 10.7 °F /  -11.8 °C 9.9 °F /  -12.3 °C 1009.0 in /  34164.7 hPa WSW 26.2 mph /  42.2 km/h 47.5 mph /  76.4 km/h 95 % 0.0 in /  0 mm
17:17 10.6 °F /  -11.9 °C 10.0 °F /  -12.2 °C 1009.0 in /  34164.7 hPa WSW 27.7 mph /  44.6 km/h 44.6 mph /  71.8 km/h 96 % 0.0 in /  0 mm
17:22 10.6 °F /  -11.9 °C 10.0 °F /  -12.2 °C 1009.0 in /  34164.7 hPa WSW 32.3 mph /  52 km/h 45.7 mph /  73.5 km/h 96 % 0.0 in /  0 mm
17:27 10.6 °F /  -11.9 °C 10.0 °F /  -12.2 °C 1009.0 in /  34164.7 hPa WSW 23.8 mph /  38.3 km/h 45.7 mph /  73.5 km/h 96 % 0.0 in /  0 mm
17:32 10.5 °F /  -11.9 °C 9.9 °F /  -12.3 °C 1009.0 in /  34164.7 hPa West 20.6 mph /  33.2 km/h 41.4 mph /  66.6 km/h 96 % 0.0 in /  0 mm
17:37 10.5 °F /  -11.9 °C 9.9 °F /  -12.3 °C 1009.0 in /  34164.7 hPa WSW 24.8 mph /  39.9 km/h 42.2 mph /  67.9 km/h 96 % 0.0 in /  0 mm
17:42 10.5 °F /  -11.9 °C 9.9 °F /  -12.3 °C 1009.0 in /  34164.7 hPa West 36.7 mph /  59.1 km/h 42.2 mph /  67.9 km/h 96 % 0.0 in /  0 mm
17:47 10.5 °F /  -11.9 °C 9.9 °F /  -12.3 °C 1009.0 in /  34164.7 hPa WSW 27.7 mph /  44.6 km/h 41.7 mph /  67.1 km/h 96 % 0.0 in /  0 mm
17:52 10.4 °F /  -12 °C 9.8 °F /  -12.3 °C 1008.0 in /  34130.9 hPa West 31.7 mph /  51 km/h 41.7 mph /  67.1 km/h 96 % 0.0 in /  0 mm
17:57 10.4 °F /  -12 °C 9.8 °F /  -12.3 °C 1008.0 in /  34130.9 hPa WSW 35.2 mph /  56.6 km/h 37.5 mph /  60.3 km/h 96 % 0.0 in /  0 mm
18:02 10.4 °F /  -12 °C 9.8 °F /  -12.3 °C 1008.0 in /  34130.9 hPa WSW 27.0 mph /  43.5 km/h 40.7 mph /  65.5 km/h 96 % 0.0 in /  0 mm
18:07 10.4 °F /  -12 °C 9.8 °F /  -12.3 °C 1009.0 in /  34164.7 hPa WSW 35.6 mph /  57.3 km/h 45.7 mph /  73.5 km/h 96 % 0.0 in /  0 mm
18:12 10.4 °F /  -12 °C 9.8 °F /  -12.3 °C 1009.0 in /  34164.7 hPa WSW 33.1 mph /  53.3 km/h 45.7 mph /  73.5 km/h 96 % 0.0 in /  0 mm
18:17 10.4 °F /  -12 °C 9.8 °F /  -12.3 °C 1009.0 in /  34164.7 hPa WSW 28.5 mph /  45.9 km/h 44.2 mph /  71.1 km/h 96 % 0.0 in /  0 mm
18:22 10.4 °F /  -12 °C 9.8 °F /  -12.3 °C 1009.0 in /  34164.7 hPa WSW 42.2 mph /  67.9 km/h 42.2 mph /  67.9 km/h 96 % 0.0 in /  0 mm
18:27 10.4 °F /  -12 °C 9.8 °F /  -12.3 °C 1009.0 in /  34164.7 hPa West 49.7 mph /  80 km/h 49.7 mph /  80 km/h 96 % 0.0 in /  0 mm
18:32 10.4 °F /  -12 °C 9.8 °F /  -12.3 °C 1009.0 in /  34164.7 hPa WSW 28.5 mph /  45.9 km/h 50.0 mph /  80.5 km/h 96 % 0.0 in /  0 mm
18:37 10.5 °F /  -11.9 °C 9.9 °F /  -12.3 °C 1009.0 in /  34164.7 hPa West 36.0 mph /  57.9 km/h 50.0 mph /  80.5 km/h 96 % 0.0 in /  0 mm
18:42 10.5 °F /  -11.9 °C 9.9 °F /  -12.3 °C 1010.0 in /  34198.6 hPa WSW 39.3 mph /  63.2 km/h 42.5 mph /  68.4 km/h 96 % 0.0 in /  0 mm
18:47 10.5 °F /  -11.9 °C 9.9 °F /  -12.3 °C 1010.0 in /  34198.6 hPa WSW 40.7 mph /  65.5 km/h 46.0 mph /  74 km/h 96 % 0.0 in /  0 mm
18:52 10.5 °F /  -11.9 °C 9.9 °F /  -12.3 °C 1010.0 in /  34198.6 hPa WSW 33.8 mph /  54.4 km/h 46.0 mph /  74 km/h 96 % 0.0 in /  0 mm
18:57 10.5 °F /  -11.9 °C 9.9 °F /  -12.3 °C 1009.0 in /  34164.7 hPa West 33.5 mph /  53.9 km/h 44.6 mph /  71.8 km/h 96 % 0.0 in /  0 mm
19:02 10.5 °F /  -11.9 °C 9.9 °F /  -12.3 °C 1009.0 in /  34164.7 hPa West 24.8 mph /  39.9 km/h 44.6 mph /  71.8 km/h 96 % 0.0 in /  0 mm
19:07 10.5 °F /  -11.9 °C 9.9 °F /  -12.3 °C 1009.0 in /  34164.7 hPa WSW 36.7 mph /  59.1 km/h 40.7 mph /  65.5 km/h 96 % 0.0 in /  0 mm
19:12 10.5 °F /  -11.9 °C 9.9 °F /  -12.3 °C 1008.0 in /  34130.9 hPa WSW 37.8 mph /  60.8 km/h 45.7 mph /  73.5 km/h 96 % 0.0 in /  0 mm
19:17 10.5 °F /  -11.9 °C 9.9 °F /  -12.3 °C 1008.0 in /  34130.9 hPa WSW 32.0 mph /  51.5 km/h 45.7 mph /  73.5 km/h 96 % 0.0 in /  0 mm
19:22 10.5 °F /  -11.9 °C 9.9 °F /  -12.3 °C 1008.0 in /  34130.9 hPa West 27.7 mph /  44.6 km/h 41.0 mph /  66 km/h 96 % 0.0 in /  0 mm
19:27 10.5 °F /  -11.9 °C 9.9 °F /  -12.3 °C 1008.0 in /  34130.9 hPa West 27.7 mph /  44.6 km/h 48.6 mph /  78.2 km/h 96 % 0.0 in /  0 mm
19:32 10.5 °F /  -11.9 °C 9.9 °F /  -12.3 °C 1008.0 in /  34130.9 hPa West 28.8 mph /  46.3 km/h 48.6 mph /  78.2 km/h 96 % 0.0 in /  0 mm
19:37 10.5 °F /  -11.9 °C 9.9 °F /  -12.3 °C 1009.0 in /  34164.7 hPa WSW 40.7 mph /  65.5 km/h 52.6 mph /  84.6 km/h 96 % 0.0 in /  0 mm
19:42 10.4 °F /  -12 °C 9.8 °F /  -12.3 °C 1009.0 in /  34164.7 hPa WSW 27.7 mph /  44.6 km/h 52.6 mph /  84.6 km/h 96 % 0.0 in /  0 mm
19:47 10.4 °F /  -12 °C 9.8 °F /  -12.3 °C 1009.0 in /  34164.7 hPa WSW 19.8 mph /  31.9 km/h 38.5 mph /  62 km/h 96 % 0.0 in /  0 mm
19:52 10.4 °F /  -12 °C 9.8 °F /  -12.3 °C 1009.0 in /  34164.7 hPa WSW 25.3 mph /  40.7 km/h 39.6 mph /  63.7 km/h 96 % 0.0 in /  0 mm
19:57 10.4 °F /  -12 °C 9.8 °F /  -12.3 °C 1009.0 in /  34164.7 hPa WSW 31.7 mph /  51 km/h 39.6 mph /  63.7 km/h 96 % 0.0 in /  0 mm
20:02 10.4 °F /  -12 °C 9.8 °F /  -12.3 °C 1009.0 in /  34164.7 hPa WSW 25.3 mph /  40.7 km/h 37.8 mph /  60.8 km/h 96 % 0.0 in /  0 mm
20:07 10.4 °F /  -12 °C 9.8 °F /  -12.3 °C 1009.0 in /  34164.7 hPa West 35.2 mph /  56.6 km/h 51.8 mph /  83.4 km/h 96 % 0.0 in /  0 mm
20:12 10.4 °F /  -12 °C 9.8 °F /  -12.3 °C 1009.0 in /  34164.7 hPa West 32.0 mph /  51.5 km/h 51.8 mph /  83.4 km/h 96 % 0.0 in /  0 mm
20:17 10.4 °F /  -12 °C 9.8 °F /  -12.3 °C 1009.0 in /  34164.7 hPa WSW 32.0 mph /  51.5 km/h 36.7 mph /  59.1 km/h 96 % 0.0 in /  0 mm
20:22 10.5 °F /  -11.9 °C 9.9 °F /  -12.3 °C 1009.0 in /  34164.7 hPa West 31.7 mph /  51 km/h 40.7 mph /  65.5 km/h 96 % 0.0 in /  0 mm
20:27 10.5 °F /  -11.9 °C 9.9 °F /  -12.3 °C 1009.0 in /  34164.7 hPa WSW 28.0 mph /  45.1 km/h 40.7 mph /  65.5 km/h 96 % 0.0 in /  0 mm
20:32 10.5 °F /  -11.9 °C 9.9 °F /  -12.3 °C 1009.0 in /  34164.7 hPa West 27.4 mph /  44.1 km/h 37.0 mph /  59.5 km/h 96 % 0.0 in /  0 mm
20:37 10.4 °F /  -12 °C 9.8 °F /  -12.3 °C 1009.0 in /  34164.7 hPa WSW 31.7 mph /  51 km/h 38.1 mph /  61.3 km/h 96 % 0.0 in /  0 mm
20:42 10.4 °F /  -12 °C 9.8 °F /  -12.3 °C 1009.0 in /  34164.7 hPa WSW 31.7 mph /  51 km/h 39.6 mph /  63.7 km/h 96 % 0.0 in /  0 mm
20:47 10.4 °F /  -12 °C 9.8 °F /  -12.3 °C 1009.0 in /  34164.7 hPa West 27.4 mph /  44.1 km/h 39.6 mph /  63.7 km/h 96 % 0.0 in /  0 mm
20:52 10.4 °F /  -12 °C 9.8 °F /  -12.3 °C 1009.0 in /  34164.7 hPa WSW 21.2 mph /  34.1 km/h 42.2 mph /  67.9 km/h 96 % 0.0 in /  0 mm
20:57 10.4 °F /  -12 °C 9.8 °F /  -12.3 °C 1009.0 in /  34164.7 hPa WSW 28.0 mph /  45.1 km/h 42.2 mph /  67.9 km/h 96 % 0.0 in /  0 mm
21:02 10.4 °F /  -12 °C 9.8 °F /  -12.3 °C 1009.0 in /  34164.7 hPa West 25.9 mph /  41.7 km/h 41.0 mph /  66 km/h 96 % 0.0 in /  0 mm
21:07 10.4 °F /  -12 °C 9.8 °F /  -12.3 °C 1009.0 in /  34164.7 hPa WSW 35.2 mph /  56.6 km/h 40.4 mph /  65 km/h 96 % 0.0 in /  0 mm
21:12 10.4 °F /  -12 °C 9.8 °F /  -12.3 °C 1009.0 in /  34164.7 hPa West 24.5 mph /  39.4 km/h 40.4 mph /  65 km/h 96 % 0.0 in /  0 mm
21:17 10.4 °F /  -12 °C 9.8 °F /  -12.3 °C 1009.0 in /  34164.7 hPa WSW 38.1 mph /  61.3 km/h 44.2 mph /  71.1 km/h 96 % 0.0 in /  0 mm
21:22 10.4 °F /  -12 °C 9.8 °F /  -12.3 °C 1009.0 in /  34164.7 hPa WSW 27.4 mph /  44.1 km/h 45.1 mph /  72.6 km/h 96 % 0.0 in /  0 mm
21:27 10.4 °F /  -12 °C 9.8 °F /  -12.3 °C 1009.0 in /  34164.7 hPa WSW 31.4 mph /  50.5 km/h 45.1 mph /  72.6 km/h 96 % 0.0 in /  0 mm
21:32 10.4 °F /  -12 °C 9.8 °F /  -12.3 °C 1009.0 in /  34164.7 hPa WSW 31.4 mph /  50.5 km/h 41.0 mph /  66 km/h 96 % 0.0 in /  0 mm
21:37 10.4 °F /  -12 °C 9.8 °F /  -12.3 °C 1009.0 in /  34164.7 hPa WSW 31.7 mph /  51 km/h 46.0 mph /  74 km/h 96 % 0.0 in /  0 mm
21:42 10.4 °F /  -12 °C 9.8 °F /  -12.3 °C 1009.0 in /  34164.7 hPa WSW 24.8 mph /  39.9 km/h 46.0 mph /  74 km/h 96 % 0.0 in /  0 mm
21:47 10.4 °F /  -12 °C 9.8 °F /  -12.3 °C 1009.0 in /  34164.7 hPa WSW 31.7 mph /  51 km/h 46.0 mph /  74 km/h 96 % 0.0 in /  0 mm
21:52 10.4 °F /  -12 °C 9.8 °F /  -12.3 °C 1009.0 in /  34164.7 hPa WSW 27.4 mph /  44.1 km/h 46.0 mph /  74 km/h 96 % 0.0 in /  0 mm
21:57 10.4 °F /  -12 °C 9.8 °F /  -12.3 °C 1009.0 in /  34164.7 hPa WSW 36.0 mph /  57.9 km/h 44.6 mph /  71.8 km/h 96 % 0.0 in /  0 mm
22:02 10.4 °F /  -12 °C 9.8 °F /  -12.3 °C 1009.0 in /  34164.7 hPa WSW 31.4 mph /  50.5 km/h 44.6 mph /  71.8 km/h 96 % 0.0 in /  0 mm
22:07 10.4 °F /  -12 °C 9.8 °F /  -12.3 °C 1009.0 in /  34164.7 hPa West 24.8 mph /  39.9 km/h 38.9 mph /  62.6 km/h 96 % 0.0 in /  0 mm
22:12 10.4 °F /  -12 °C 9.8 °F /  -12.3 °C 1009.0 in /  34164.7 hPa WSW 20.1 mph /  32.3 km/h 38.1 mph /  61.3 km/h 96 % 0.0 in /  0 mm
22:17 10.4 °F /  -12 °C 9.8 °F /  -12.3 °C 1009.0 in /  34164.7 hPa WSW 24.5 mph /  39.4 km/h 42.2 mph /  67.9 km/h 96 % 0.0 in /  0 mm
22:22 10.4 °F /  -12 °C 9.8 °F /  -12.3 °C 1009.0 in /  34164.7 hPa West 23.8 mph /  38.3 km/h 44.2 mph /  71.1 km/h 96 % 0.0 in /  0 mm
22:27 10.4 °F /  -12 °C 9.8 °F /  -12.3 °C 1009.0 in /  34164.7 hPa WSW 21.2 mph /  34.1 km/h 44.2 mph /  71.1 km/h 96 % 0.0 in /  0 mm
22:32 10.4 °F /  -12 °C 9.8 °F /  -12.3 °C 1009.0 in /  34164.7 hPa West 36.0 mph /  57.9 km/h 43.1 mph /  69.4 km/h 96 % 0.0 in /  0 mm
22:37 10.5 °F /  -11.9 °C 9.9 °F /  -12.3 °C 1009.0 in /  34164.7 hPa WSW 32.0 mph /  51.5 km/h 43.1 mph /  69.4 km/h 96 % 0.0 in /  0 mm
22:42 10.5 °F /  -11.9 °C 9.9 °F /  -12.3 °C 1009.0 in /  34164.7 hPa West 25.3 mph /  40.7 km/h 43.6 mph /  70.2 km/h 96 % 0.0 in /  0 mm
22:47 10.5 °F /  -11.9 °C 9.9 °F /  -12.3 °C 1009.0 in /  34164.7 hPa West 24.8 mph /  39.9 km/h 43.6 mph /  70.2 km/h 96 % 0.0 in /  0 mm
22:52 10.5 °F /  -11.9 °C 9.9 °F /  -12.3 °C 1009.0 in /  34164.7 hPa WSW 21.9 mph /  35.2 km/h 38.5 mph /  62 km/h 96 % 0.0 in /  0 mm
22:57 10.5 °F /  -11.9 °C 9.9 °F /  -12.3 °C 1009.0 in /  34164.7 hPa WSW 33.1 mph /  53.3 km/h 41.0 mph /  66 km/h 96 % 0.0 in /  0 mm
23:02 10.5 °F /  -11.9 °C 9.9 °F /  -12.3 °C 1009.0 in /  34164.7 hPa West 18.3 mph /  29.5 km/h 41.0 mph /  66 km/h 96 % 0.0 in /  0 mm
23:07 10.5 °F /  -11.9 °C 9.9 °F /  -12.3 °C 1008.0 in /  34130.9 hPa WSW 42.8 mph /  68.9 km/h 51.8 mph /  83.4 km/h 96 % 0.0 in /  0 mm
23:12 10.4 °F /  -12 °C 9.8 °F /  -12.3 °C 1008.0 in /  34130.9 hPa WSW 28.5 mph /  45.9 km/h 51.8 mph /  83.4 km/h 96 % 0.0 in /  0 mm
23:17 10.4 °F /  -12 °C 9.8 °F /  -12.3 °C 1008.0 in /  34130.9 hPa WSW 28.5 mph /  45.9 km/h 47.1 mph /  75.8 km/h 96 % 0.0 in /  0 mm
23:22 10.4 °F /  -12 °C 9.8 °F /  -12.3 °C 1008.0 in /  34130.9 hPa WSW 45.1 mph /  72.6 km/h 45.1 mph /  72.6 km/h 96 % 0.0 in /  0 mm
23:27 10.4 °F /  -12 °C 9.8 °F /  -12.3 °C 1008.0 in /  34130.9 hPa WSW 37.5 mph /  60.3 km/h 45.1 mph /  72.6 km/h 96 % 0.0 in /  0 mm
23:32 10.4 °F /  -12 °C 9.8 °F /  -12.3 °C 1008.0 in /  34130.9 hPa SW 26.2 mph /  42.2 km/h 42.8 mph /  68.9 km/h 96 % 0.0 in /  0 mm
23:37 10.3 °F /  -12.1 °C 9.7 °F /  -12.4 °C 1008.0 in /  34130.9 hPa WSW 28.5 mph /  45.9 km/h 38.5 mph /  62 km/h 96 % 0.0 in /  0 mm
23:39 10.3 °F /  -12.1 °C 9.7 °F /  -12.4 °C 1008.0 in /  34130.9 hPa West 21.2 mph /  34.1 km/h 39.3 mph /  63.2 km/h 96 % 0.0 in /  0 mm
23:44 10.3 °F /  -12.1 °C 9.7 °F /  -12.4 °C 1008.0 in /  34130.9 hPa WSW 35.6 mph /  57.3 km/h 39.3 mph /  63.2 km/h 96 % 0.0 in /  0 mm
23:49 10.3 °F /  -12.1 °C 9.7 °F /  -12.4 °C 1008.0 in /  34130.9 hPa WSW 37.5 mph /  60.3 km/h 40.4 mph /  65 km/h 96 % 0.0 in /  0 mm
23:54 10.3 °F /  -12.1 °C 9.7 °F /  -12.4 °C 1007.0 in /  34097 hPa West 25.3 mph /  40.7 km/h 42.2 mph /  67.9 km/h 96 % 0.0 in /  0 mm
23:59 10.3 °F /  -12.1 °C 9.7 °F /  -12.4 °C 1007.0 in /  34097 hPa WSW 24.8 mph /  39.9 km/h 45.1 mph /  72.6 km/h 96 % 0.0 in /  0 mm
Le Gheer Warneton
Courtoisie de Weather Underground - 2.25 mb

Mise a jour : 17/02/2018 20:22:11
Généré par Cumulus 1.9.4 (1099)